Flugplatz Mannheim-City

Bericht für EDFM

vom 22.10. um 10:50 UTC

Wind 5 kt aus 40°

Sichtweite 10 km oder mehr

gute Sicht, keine Wolken < 5000 ft, keine CB, keine Wettererscheinungen (CAVOK)

Temperatur 16.0°C

Taupunkt 10.0°C

Luftfeuchtigkeit 68%

Luftdruck 1025 hPa

EDFM 221050Z 04005KT 360V080 CAVOK 16/10 Q1025

Prognose für EDFM

vom 22.10. um 00:00 UTC

Zwischen 00:00 UTC und 00:00 UTC

variable Windrichtung mit 3 kt

Sichtweite 10 km oder mehr

aufgelockert bewölkt in 3000 ft

TAF EDFM 220800Z 2209/2218 VRB03KT 9999 SCT030
Impressum